sensor_id;sensor_type;location;lat;lon;timestamp;P1;durP1;ratioP1;P2;durP2;ratioP2
52186;SDS011;38161;53.020;6.598;2023-06-26T00:00:11;61.00;;;57.40;;
52186;SDS011;38161;53.020;6.598;2023-06-26T00:02:38;66.53;;;62.67;;
52186;SDS011;38161;53.020;6.598;2023-06-26T00:07:30;53.90;;;50.50;;
52186;SDS011;38161;53.020;6.598;2023-06-26T00:09:59;62.92;;;59.10;;
52186;SDS011;38161;53.020;6.598;2023-06-26T00:12:25;62.45;;;58.65;;
52186;SDS011;38161;53.020;6.598;2023-06-26T00:17:17;56.28;;;53.00;;
52186;SDS011;38161;53.020;6.598;2023-06-26T00:19:44;57.22;;;53.95;;
52186;SDS011;38161;53.020;6.598;2023-06-26T00:22:11;58.33;;;55.00;;
52186;SDS011;38161;53.020;6.598;2023-06-26T00:24:40;65.75;;;61.75;;
52186;SDS011;38161;53.020;6.598;2023-06-26T00:27:11;62.97;;;58.97;;
52186;SDS011;38161;53.020;6.598;2023-06-26T00:29:37;62.60;;;58.92;;
52186;SDS011;38161;53.020;6.598;2023-06-26T00:32:03;56.13;;;52.63;;
52186;SDS011;38161;53.020;6.598;2023-06-26T00:34:30;59.83;;;56.20;;
52186;SDS011;38161;53.020;6.598;2023-06-26T00:36:56;67.28;;;63.30;;
52186;SDS011;38161;53.020;6.598;2023-06-26T00:39:22;64.03;;;60.00;;
52186;SDS011;38161;53.020;6.598;2023-06-26T00:41:51;68.30;;;64.13;;
52186;SDS011;38161;53.020;6.598;2023-06-26T00:44:19;63.10;;;59.22;;
52186;SDS011;38161;53.020;6.598;2023-06-26T00:49:10;50.15;;;47.17;;
52186;SDS011;38161;53.020;6.598;2023-06-26T00:51:37;61.25;;;57.58;;
52186;SDS011;38161;53.020;6.598;2023-06-26T00:54:03;57.38;;;53.88;;
52186;SDS011;38161;53.020;6.598;2023-06-26T00:56:30;62.58;;;58.88;;
52186;SDS011;38161;53.020;6.598;2023-06-26T00:58:57;464.45;;;136.45;;
52186;SDS011;38161;53.020;6.598;2023-06-26T01:08:46;48.03;;;45.10;;
52186;SDS011;38161;53.020;6.598;2023-06-26T01:11:16;52.88;;;49.70;;
52186;SDS011;38161;53.020;6.598;2023-06-26T01:13:45;61.40;;;57.75;;
52186;SDS011;38161;53.020;6.598;2023-06-26T01:16:12;58.15;;;54.53;;
52186;SDS011;38161;53.020;6.598;2023-06-26T01:18:40;51.45;;;48.47;;
52186;SDS011;38161;53.020;6.598;2023-06-26T01:21:09;62.10;;;58.25;;
52186;SDS011;38161;53.020;6.598;2023-06-26T01:23:47;61.20;;;57.63;;
52186;SDS011;38161;53.020;6.598;2023-06-26T01:27:19;56.38;;;52.85;;
52186;SDS011;38161;53.020;6.598;2023-06-26T01:29:49;56.80;;;53.38;;
52186;SDS011;38161;53.020;6.598;2023-06-26T01:32:18;56.03;;;52.47;;
52186;SDS011;38161;53.020;6.598;2023-06-26T01:34:50;51.63;;;48.42;;
52186;SDS011;38161;53.020;6.598;2023-06-26T01:37:17;58.97;;;54.85;;
52186;SDS011;38161;53.020;6.598;2023-06-26T01:39:44;54.70;;;51.20;;
52186;SDS011;38161;53.020;6.598;2023-06-26T01:44:36;48.50;;;45.45;;
52186;SDS011;38161;53.020;6.598;2023-06-26T01:47:29;55.28;;;51.78;;
52186;SDS011;38161;53.020;6.598;2023-06-26T01:50:12;53.28;;;49.83;;
52186;SDS011;38161;53.020;6.598;2023-06-26T01:53:24;50.85;;;47.70;;
52186;SDS011;38161;53.020;6.598;2023-06-26T01:55:59;51.53;;;48.40;;
52186;SDS011;38161;53.020;6.598;2023-06-26T01:58:31;55.27;;;52.00;;
52186;SDS011;38161;53.020;6.598;2023-06-26T02:00:58;53.83;;;50.55;;
52186;SDS011;38161;53.020;6.598;2023-06-26T02:03:25;58.92;;;55.45;;
52186;SDS011;38161;53.020;6.598;2023-06-26T02:05:52;58.33;;;54.80;;
52186;SDS011;38161;53.020;6.598;2023-06-26T02:08:19;54.63;;;51.35;;
52186;SDS011;38161;53.020;6.598;2023-06-26T02:10:58;57.28;;;53.72;;
52186;SDS011;38161;53.020;6.598;2023-06-26T02:13:25;50.22;;;47.22;;
52186;SDS011;38161;53.020;6.598;2023-06-26T02:18:32;53.13;;;49.65;;
52186;SDS011;38161;53.020;6.598;2023-06-26T02:21:31;46.83;;;43.72;;
52186;SDS011;38161;53.020;6.598;2023-06-26T02:23:59;50.95;;;47.83;;
52186;SDS011;38161;53.020;6.598;2023-06-26T02:26:28;47.38;;;44.30;;
52186;SDS011;38161;53.020;6.598;2023-06-26T02:28:55;52.65;;;49.47;;
52186;SDS011;38161;53.020;6.598;2023-06-26T02:31:23;59.92;;;56.20;;
52186;SDS011;38161;53.020;6.598;2023-06-26T02:33:56;52.10;;;48.65;;
52186;SDS011;38161;53.020;6.598;2023-06-26T02:36:38;50.47;;;47.25;;
52186;SDS011;38161;53.020;6.598;2023-06-26T02:41:34;46.95;;;43.97;;
52186;SDS011;38161;53.020;6.598;2023-06-26T02:44:00;46.55;;;43.65;;
52186;SDS011;38161;53.020;6.598;2023-06-26T02:46:27;52.30;;;48.97;;
52186;SDS011;38161;53.020;6.598;2023-06-26T02:48:54;52.05;;;48.60;;
52186;SDS011;38161;53.020;6.598;2023-06-26T02:51:20;53.45;;;50.03;;
52186;SDS011;38161;53.020;6.598;2023-06-26T02:54:03;49.03;;;45.88;;
52186;SDS011;38161;53.020;6.598;2023-06-26T02:56:29;51.72;;;48.33;;
52186;SDS011;38161;53.020;6.598;2023-06-26T02:58:57;60.70;;;56.92;;
52186;SDS011;38161;53.020;6.598;2023-06-26T03:01:24;49.72;;;46.50;;
52186;SDS011;38161;53.020;6.598;2023-06-26T03:03:50;57.03;;;53.33;;
52186;SDS011;38161;53.020;6.598;2023-06-26T03:06:17;53.72;;;50.28;;
52186;SDS011;38161;53.020;6.598;2023-06-26T03:08:43;55.22;;;51.60;;
52186;SDS011;38161;53.020;6.598;2023-06-26T03:11:09;56.33;;;52.65;;
52186;SDS011;38161;53.020;6.598;2023-06-26T03:13:35;51.83;;;48.33;;
52186;SDS011;38161;53.020;6.598;2023-06-26T03:16:02;53.42;;;50.03;;
52186;SDS011;38161;53.020;6.598;2023-06-26T03:18:31;52.05;;;48.60;;
52186;SDS011;38161;53.020;6.598;2023-06-26T03:20:58;57.65;;;53.92;;
52186;SDS011;38161;53.020;6.598;2023-06-26T03:23:37;55.40;;;51.92;;
52186;SDS011;38161;53.020;6.598;2023-06-26T03:26:07;61.20;;;57.05;;
52186;SDS011;38161;53.020;6.598;2023-06-26T03:28:41;68.25;;;63.60;;
52186;SDS011;38161;53.020;6.598;2023-06-26T03:31:10;53.95;;;50.42;;
52186;SDS011;38161;53.020;6.598;2023-06-26T03:33:37;55.60;;;52.03;;
52186;SDS011;38161;53.020;6.598;2023-06-26T03:36:05;57.22;;;53.35;;
52186;SDS011;38161;53.020;6.598;2023-06-26T03:38:31;57.10;;;53.45;;
52186;SDS011;38161;53.020;6.598;2023-06-26T03:41:12;66.85;;;62.40;;
52186;SDS011;38161;53.020;6.598;2023-06-26T03:43:38;59.85;;;55.97;;
52186;SDS011;38161;53.020;6.598;2023-06-26T03:46:04;56.50;;;52.72;;
52186;SDS011;38161;53.020;6.598;2023-06-26T03:48:36;58.42;;;54.47;;
52186;SDS011;38161;53.020;6.598;2023-06-26T03:51:03;64.97;;;60.92;;
52186;SDS011;38161;53.020;6.598;2023-06-26T03:53:29;60.58;;;56.58;;
52186;SDS011;38161;53.020;6.598;2023-06-26T03:56:06;60.03;;;56.25;;
52186;SDS011;38161;53.020;6.598;2023-06-26T03:58:36;54.75;;;51.08;;
52186;SDS011;38161;53.020;6.598;2023-06-26T04:01:14;52.88;;;49.65;;
52186;SDS011;38161;53.020;6.598;2023-06-26T04:03:43;57.85;;;54.38;;
52186;SDS011;38161;53.020;6.598;2023-06-26T04:06:11;64.03;;;60.08;;
52186;SDS011;38161;53.020;6.598;2023-06-26T04:08:42;59.35;;;55.70;;
52186;SDS011;38161;53.020;6.598;2023-06-26T04:11:10;62.00;;;58.13;;
52186;SDS011;38161;53.020;6.598;2023-06-26T04:13:38;66.60;;;62.58;;
52186;SDS011;38161;53.020;6.598;2023-06-26T04:16:10;63.03;;;58.92;;
52186;SDS011;38161;53.020;6.598;2023-06-26T04:18:37;61.00;;;57.22;;
52186;SDS011;38161;53.020;6.598;2023-06-26T04:21:12;61.97;;;58.13;;
52186;SDS011;38161;53.020;6.598;2023-06-26T04:23:42;65.78;;;61.70;;
52186;SDS011;38161;53.020;6.598;2023-06-26T04:26:10;60.83;;;57.08;;
52186;SDS011;38161;53.020;6.598;2023-06-26T04:28:39;65.70;;;61.45;;
52186;SDS011;38161;53.020;6.598;2023-06-26T04:31:17;70.40;;;66.10;;
52186;SDS011;38161;53.020;6.598;2023-06-26T04:33:51;61.47;;;57.58;;
52186;SDS011;38161;53.020;6.598;2023-06-26T04:36:20;68.13;;;63.92;;
52186;SDS011;38161;53.020;6.598;2023-06-26T04:38:54;66.10;;;61.90;;
52186;SDS011;38161;53.020;6.598;2023-06-26T04:41:21;69.95;;;65.55;;
52186;SDS011;38161;53.020;6.598;2023-06-26T04:43:51;72.20;;;67.38;;
52186;SDS011;38161;53.020;6.598;2023-06-26T04:46:27;68.20;;;63.92;;
52186;SDS011;38161;53.020;6.598;2023-06-26T04:49:01;62.25;;;58.38;;
52186;SDS011;38161;53.020;6.598;2023-06-26T04:51:30;65.47;;;61.50;;
52186;SDS011;38161;53.020;6.598;2023-06-26T04:53:57;62.85;;;59.05;;
52186;SDS011;38161;53.020;6.598;2023-06-26T04:56:25;65.80;;;61.83;;
52186;SDS011;38161;53.020;6.598;2023-06-26T04:58:53;73.70;;;69.15;;
52186;SDS011;38161;53.020;6.598;2023-06-26T05:01:24;78.03;;;73.28;;
52186;SDS011;38161;53.020;6.598;2023-06-26T05:03:55;74.18;;;69.57;;
52186;SDS011;38161;53.020;6.598;2023-06-26T05:06:24;82.78;;;77.55;;
52186;SDS011;38161;53.020;6.598;2023-06-26T05:08:52;71.80;;;67.32;;
52186;SDS011;38161;53.020;6.598;2023-06-26T05:11:19;91.13;;;85.18;;
52186;SDS011;38161;53.020;6.598;2023-06-26T05:13:45;87.95;;;82.05;;
52186;SDS011;38161;53.020;6.598;2023-06-26T05:16:14;91.60;;;85.72;;
52186;SDS011;38161;53.020;6.598;2023-06-26T05:18:40;87.90;;;82.18;;
52186;SDS011;38161;53.020;6.598;2023-06-26T05:21:06;89.10;;;83.38;;
52186;SDS011;38161;53.020;6.598;2023-06-26T05:23:35;104.25;;;96.43;;
52186;SDS011;38161;53.020;6.598;2023-06-26T05:26:06;80.78;;;75.03;;
52186;SDS011;38161;53.020;6.598;2023-06-26T05:28:32;91.18;;;85.03;;
52186;SDS011;38161;53.020;6.598;2023-06-26T05:31:01;100.53;;;93.43;;
52186;SDS011;38161;53.020;6.598;2023-06-26T05:33:28;90.68;;;84.90;;
52186;SDS011;38161;53.020;6.598;2023-06-26T05:35:54;94.65;;;88.32;;
52186;SDS011;38161;53.020;6.598;2023-06-26T05:40:48;79.15;;;73.72;;
52186;SDS011;38161;53.020;6.598;2023-06-26T05:43:19;82.88;;;77.22;;
52186;SDS011;38161;53.020;6.598;2023-06-26T05:45:48;97.75;;;90.80;;
52186;SDS011;38161;53.020;6.598;2023-06-26T05:48:16;92.78;;;86.35;;
52186;SDS011;38161;53.020;6.598;2023-06-26T05:51:00;105.40;;;96.82;;
52186;SDS011;38161;53.020;6.598;2023-06-26T05:53:26;88.60;;;82.15;;
52186;SDS011;38161;53.020;6.598;2023-06-26T05:58:19;75.55;;;70.55;;
52186;SDS011;38161;53.020;6.598;2023-06-26T06:00:47;77.90;;;72.50;;
52186;SDS011;38161;53.020;6.598;2023-06-26T06:03:15;74.60;;;69.65;;
52186;SDS011;38161;53.020;6.598;2023-06-26T06:05:52;98.13;;;90.85;;
52186;SDS011;38161;53.020;6.598;2023-06-26T06:08:20;93.93;;;87.75;;
52186;SDS011;38161;53.020;6.598;2023-06-26T06:10:49;97.68;;;91.03;;
52186;SDS011;38161;53.020;6.598;2023-06-26T06:13:14;86.93;;;80.78;;
52186;SDS011;38161;53.020;6.598;2023-06-26T06:15:45;84.13;;;77.40;;
52186;SDS011;38161;53.020;6.598;2023-06-26T06:18:12;83.45;;;78.05;;
52186;SDS011;38161;53.020;6.598;2023-06-26T06:20:37;81.82;;;76.75;;
52186;SDS011;38161;53.020;6.598;2023-06-26T06:23:04;83.57;;;78.10;;
52186;SDS011;38161;53.020;6.598;2023-06-26T06:25:30;77.07;;;71.85;;
52186;SDS011;38161;53.020;6.598;2023-06-26T06:27:56;77.03;;;72.25;;
52186;SDS011;38161;53.020;6.598;2023-06-26T06:30:23;74.97;;;70.53;;
52186;SDS011;38161;53.020;6.598;2023-06-26T06:32:49;80.68;;;75.18;;
52186;SDS011;38161;53.020;6.598;2023-06-26T06:35:18;74.18;;;69.35;;
52186;SDS011;38161;53.020;6.598;2023-06-26T06:37:52;77.30;;;72.35;;
52186;SDS011;38161;53.020;6.598;2023-06-26T06:40:19;81.13;;;74.35;;
52186;SDS011;38161;53.020;6.598;2023-06-26T06:42:47;66.88;;;62.90;;
52186;SDS011;38161;53.020;6.598;2023-06-26T06:45:17;70.93;;;66.47;;
52186;SDS011;38161;53.020;6.598;2023-06-26T06:47:53;71.20;;;67.03;;
52186;SDS011;38161;53.020;6.598;2023-06-26T06:50:30;70.65;;;65.75;;
52186;SDS011;38161;53.020;6.598;2023-06-26T06:52:56;74.47;;;69.78;;
52186;SDS011;38161;53.020;6.598;2023-06-26T06:58:00;54.50;;;51.15;;
52186;SDS011;38161;53.020;6.598;2023-06-26T07:00:26;53.58;;;50.22;;
52186;SDS011;38161;53.020;6.598;2023-06-26T07:02:52;61.45;;;57.92;;
52186;SDS011;38161;53.020;6.598;2023-06-26T07:05:19;58.25;;;54.78;;
52186;SDS011;38161;53.020;6.598;2023-06-26T07:07:45;65.53;;;61.53;;
52186;SDS011;38161;53.020;6.598;2023-06-26T07:12:41;50.30;;;47.13;;
52186;SDS011;38161;53.020;6.598;2023-06-26T07:15:22;53.20;;;49.85;;
52186;SDS011;38161;53.020;6.598;2023-06-26T07:17:50;59.25;;;55.65;;
52186;SDS011;38161;53.020;6.598;2023-06-26T07:20:16;54.03;;;50.72;;
52186;SDS011;38161;53.020;6.598;2023-06-26T07:22:43;63.65;;;58.92;;
52186;SDS011;38161;53.020;6.598;2023-06-26T07:25:14;60.72;;;57.10;;
52186;SDS011;38161;53.020;6.598;2023-06-26T07:27:46;62.20;;;58.25;;
52186;SDS011;38161;53.020;6.598;2023-06-26T07:30:14;62.47;;;58.63;;
52186;SDS011;38161;53.020;6.598;2023-06-26T07:32:46;71.18;;;67.00;;
52186;SDS011;38161;53.020;6.598;2023-06-26T07:35:12;57.95;;;54.30;;
52186;SDS011;38161;53.020;6.598;2023-06-26T07:42:32;49.15;;;46.15;;
52186;SDS011;38161;53.020;6.598;2023-06-26T07:44:58;53.88;;;50.58;;
52186;SDS011;38161;53.020;6.598;2023-06-26T07:47:24;55.35;;;52.17;;
52186;SDS011;38161;53.020;6.598;2023-06-26T07:49:50;55.88;;;52.53;;
52186;SDS011;38161;53.020;6.598;2023-06-26T07:52:17;59.25;;;55.70;;
52186;SDS011;38161;53.020;6.598;2023-06-26T07:54:44;63.47;;;59.80;;
52186;SDS011;38161;53.020;6.598;2023-06-26T07:59:37;50.05;;;46.95;;
52186;SDS011;38161;53.020;6.598;2023-06-26T08:02:04;56.55;;;53.08;;
52186;SDS011;38161;53.020;6.598;2023-06-26T08:04:32;59.95;;;56.05;;
52186;SDS011;38161;53.020;6.598;2023-06-26T08:06:59;56.63;;;53.20;;
52186;SDS011;38161;53.020;6.598;2023-06-26T08:09:29;54.50;;;51.08;;
52186;SDS011;38161;53.020;6.598;2023-06-26T08:11:59;59.83;;;56.22;;
52186;SDS011;38161;53.020;6.598;2023-06-26T08:14:26;48.15;;;45.10;;
52186;SDS011;38161;53.020;6.598;2023-06-26T08:16:53;59.78;;;56.25;;
52186;SDS011;38161;53.020;6.598;2023-06-26T08:19:24;56.38;;;53.00;;
52186;SDS011;38161;53.020;6.598;2023-06-26T08:21:51;62.40;;;58.45;;
52186;SDS011;38161;53.020;6.598;2023-06-26T08:24:17;54.80;;;51.45;;
52186;SDS011;38161;53.020;6.598;2023-06-26T08:26:47;57.40;;;54.13;;
52186;SDS011;38161;53.020;6.598;2023-06-26T08:29:17;58.22;;;54.92;;
52186;SDS011;38161;53.020;6.598;2023-06-26T08:31:49;61.10;;;57.25;;
52186;SDS011;38161;53.020;6.598;2023-06-26T08:34:15;51.58;;;48.65;;
52186;SDS011;38161;53.020;6.598;2023-06-26T08:36:42;52.97;;;49.65;;
52186;SDS011;38161;53.020;6.598;2023-06-26T08:39:12;47.72;;;45.00;;
52186;SDS011;38161;53.020;6.598;2023-06-26T08:41:38;57.03;;;53.78;;
52186;SDS011;38161;53.020;6.598;2023-06-26T08:46:34;49.83;;;46.95;;
52186;SDS011;38161;53.020;6.598;2023-06-26T08:49:05;58.42;;;55.08;;
52186;SDS011;38161;53.020;6.598;2023-06-26T08:51:45;47.88;;;44.88;;
52186;SDS011;38161;53.020;6.598;2023-06-26T08:54:18;52.95;;;49.67;;
52186;SDS011;38161;53.020;6.598;2023-06-26T08:56:55;53.25;;;50.08;;
52186;SDS011;38161;53.020;6.598;2023-06-26T08:59:22;47.72;;;44.78;;
52186;SDS011;38161;53.020;6.598;2023-06-26T09:04:15;46.50;;;43.72;;
52186;SDS011;38161;53.020;6.598;2023-06-26T09:06:41;49.35;;;46.45;;
52186;SDS011;38161;53.020;6.598;2023-06-26T09:09:07;53.15;;;50.05;;
52186;SDS011;38161;53.020;6.598;2023-06-26T09:14:01;46.97;;;44.07;;
52186;SDS011;38161;53.020;6.598;2023-06-26T09:16:33;52.17;;;49.10;;
52186;SDS011;38161;53.020;6.598;2023-06-26T09:19:08;52.10;;;49.00;;
52186;SDS011;38161;53.020;6.598;2023-06-26T09:21:40;55.35;;;52.00;;
52186;SDS011;38161;53.020;6.598;2023-06-26T09:24:07;59.90;;;56.72;;
52186;SDS011;38161;53.020;6.598;2023-06-26T09:26:39;51.35;;;48.45;;
52186;SDS011;38161;53.020;6.598;2023-06-26T09:29:06;54.20;;;51.03;;
52186;SDS011;38161;53.020;6.598;2023-06-26T09:31:33;52.03;;;49.03;;
52186;SDS011;38161;53.020;6.598;2023-06-26T09:34:05;50.78;;;47.63;;
52186;SDS011;38161;53.020;6.598;2023-06-26T09:36:31;45.72;;;42.88;;
52186;SDS011;38161;53.020;6.598;2023-06-26T09:39:05;46.67;;;44.05;;
52186;SDS011;38161;53.020;6.598;2023-06-26T09:41:36;41.25;;;38.50;;
52186;SDS011;38161;53.020;6.598;2023-06-26T09:44:06;40.78;;;38.22;;
52186;SDS011;38161;53.020;6.598;2023-06-26T09:46:37;38.53;;;36.15;;
52186;SDS011;38161;53.020;6.598;2023-06-26T09:51:31;38.92;;;35.28;;
52186;SDS011;38161;53.020;6.598;2023-06-26T09:53:59;44.08;;;41.10;;
52186;SDS011;38161;53.020;6.598;2023-06-26T09:56:27;41.50;;;38.88;;
52186;SDS011;38161;53.020;6.598;2023-06-26T09:59:03;47.38;;;44.60;;
52186;SDS011;38161;53.020;6.598;2023-06-26T10:01:31;43.78;;;41.25;;
52186;SDS011;38161;53.020;6.598;2023-06-26T10:03:57;39.80;;;37.42;;
52186;SDS011;38161;53.020;6.598;2023-06-26T10:06:26;33.80;;;31.75;;
52186;SDS011;38161;53.020;6.598;2023-06-26T10:08:54;36.47;;;34.13;;
52186;SDS011;38161;53.020;6.598;2023-06-26T10:11:23;31.92;;;29.63;;
52186;SDS011;38161;53.020;6.598;2023-06-26T10:13:53;31.90;;;30.05;;
52186;SDS011;38161;53.020;6.598;2023-06-26T10:16:22;34.42;;;32.40;;
52186;SDS011;38161;53.020;6.598;2023-06-26T10:18:55;29.15;;;27.13;;
52186;SDS011;38161;53.020;6.598;2023-06-26T10:21:31;28.48;;;26.70;;
52186;SDS011;38161;53.020;6.598;2023-06-26T10:24:05;27.38;;;25.48;;
52186;SDS011;38161;53.020;6.598;2023-06-26T10:26:35;31.70;;;29.63;;
52186;SDS011;38161;53.020;6.598;2023-06-26T10:29:13;46.75;;;32.25;;
52186;SDS011;38161;53.020;6.598;2023-06-26T10:31:43;33.42;;;31.42;;
52186;SDS011;38161;53.020;6.598;2023-06-26T10:34:14;34.35;;;32.17;;
52186;SDS011;38161;53.020;6.598;2023-06-26T10:36:47;32.10;;;29.92;;
52186;SDS011;38161;53.020;6.598;2023-06-26T10:39:25;27.27;;;25.63;;
52186;SDS011;38161;53.020;6.598;2023-06-26T10:41:55;25.40;;;23.63;;
52186;SDS011;38161;53.020;6.598;2023-06-26T10:44:43;27.00;;;25.40;;
52186;SDS011;38161;53.020;6.598;2023-06-26T10:47:10;26.42;;;24.70;;
52186;SDS011;38161;53.020;6.598;2023-06-26T10:49:43;24.00;;;22.35;;
52186;SDS011;38161;53.020;6.598;2023-06-26T10:52:25;23.45;;;21.80;;
52186;SDS011;38161;53.020;6.598;2023-06-26T10:54:54;21.77;;;20.35;;
52186;SDS011;38161;53.020;6.598;2023-06-26T10:57:23;22.17;;;20.67;;
52186;SDS011;38161;53.020;6.598;2023-06-26T11:00:13;22.35;;;20.75;;
52186;SDS011;38161;53.020;6.598;2023-06-26T11:02:52;24.13;;;22.70;;
52186;SDS011;38161;53.020;6.598;2023-06-26T11:05:32;22.52;;;20.92;;
52186;SDS011;38161;53.020;6.598;2023-06-26T11:08:08;25.38;;;23.83;;
52186;SDS011;38161;53.020;6.598;2023-06-26T11:10:52;26.27;;;24.63;;
52186;SDS011;38161;53.020;6.598;2023-06-26T11:13:33;29.20;;;27.35;;
52186;SDS011;38161;53.020;6.598;2023-06-26T11:16:01;26.35;;;24.63;;
52186;SDS011;38161;53.020;6.598;2023-06-26T11:18:27;22.98;;;21.38;;
52186;SDS011;38161;53.020;6.598;2023-06-26T11:23:48;20.33;;;18.38;;
52186;SDS011;38161;53.020;6.598;2023-06-26T11:26:17;19.33;;;17.92;;
52186;SDS011;38161;53.020;6.598;2023-06-26T11:28:54;24.48;;;22.85;;
52186;SDS011;38161;53.020;6.598;2023-06-26T11:31:27;19.65;;;18.33;;
52186;SDS011;38161;53.020;6.598;2023-06-26T11:33:58;23.38;;;21.33;;
52186;SDS011;38161;53.020;6.598;2023-06-26T11:36:26;22.50;;;20.67;;
52186;SDS011;38161;53.020;6.598;2023-06-26T11:38:59;19.35;;;18.08;;
52186;SDS011;38161;53.020;6.598;2023-06-26T11:41:37;21.60;;;19.95;;
52186;SDS011;38161;53.020;6.598;2023-06-26T11:44:06;18.95;;;17.67;;
52186;SDS011;38161;53.020;6.598;2023-06-26T11:46:34;17.73;;;16.40;;
52186;SDS011;38161;53.020;6.598;2023-06-26T11:49:07;20.50;;;19.17;;
52186;SDS011;38161;53.020;6.598;2023-06-26T11:51:33;20.17;;;18.88;;
52186;SDS011;38161;53.020;6.598;2023-06-26T11:54:02;17.95;;;16.77;;
52186;SDS011;38161;53.020;6.598;2023-06-26T11:56:29;17.67;;;16.13;;
52186;SDS011;38161;53.020;6.598;2023-06-26T11:58:56;19.70;;;18.50;;
52186;SDS011;38161;53.020;6.598;2023-06-26T12:04:03;17.83;;;16.58;;
52186;SDS011;38161;53.020;6.598;2023-06-26T12:06:30;15.77;;;14.63;;
52186;SDS011;38161;53.020;6.598;2023-06-26T12:09:02;18.40;;;17.23;;
52186;SDS011;38161;53.020;6.598;2023-06-26T12:11:42;17.00;;;15.73;;
52186;SDS011;38161;53.020;6.598;2023-06-26T12:14:09;18.27;;;16.92;;
52186;SDS011;38161;53.020;6.598;2023-06-26T12:16:37;18.85;;;17.70;;
52186;SDS011;38161;53.020;6.598;2023-06-26T12:19:05;19.40;;;18.10;;
52186;SDS011;38161;53.020;6.598;2023-06-26T12:24:05;14.23;;;13.32;;
52186;SDS011;38161;53.020;6.598;2023-06-26T12:26:33;15.93;;;14.63;;
52186;SDS011;38161;53.020;6.598;2023-06-26T12:29:08;14.35;;;13.35;;
52186;SDS011;38161;53.020;6.598;2023-06-26T12:31:43;17.67;;;16.42;;
52186;SDS011;38161;53.020;6.598;2023-06-26T12:34:14;19.75;;;18.35;;
52186;SDS011;38161;53.020;6.598;2023-06-26T12:36:45;16.38;;;15.10;;
52186;SDS011;38161;53.020;6.598;2023-06-26T12:39:19;15.43;;;14.23;;
52186;SDS011;38161;53.020;6.598;2023-06-26T12:41:57;13.35;;;12.38;;
52186;SDS011;38161;53.020;6.598;2023-06-26T12:44:26;15.00;;;13.90;;
52186;SDS011;38161;53.020;6.598;2023-06-26T12:47:02;16.55;;;15.25;;
52186;SDS011;38161;53.020;6.598;2023-06-26T12:49:35;13.70;;;12.40;;
52186;SDS011;38161;53.020;6.598;2023-06-26T12:52:06;15.73;;;14.32;;
52186;SDS011;38161;53.020;6.598;2023-06-26T12:54:38;17.55;;;16.25;;
52186;SDS011;38161;53.020;6.598;2023-06-26T12:57:06;18.67;;;17.23;;
52186;SDS011;38161;53.020;6.598;2023-06-26T12:59:33;16.85;;;15.45;;
52186;SDS011;38161;53.020;6.598;2023-06-26T13:02:04;15.43;;;14.23;;
52186;SDS011;38161;53.020;6.598;2023-06-26T13:04:34;14.75;;;13.60;;
52186;SDS011;38161;53.020;6.598;2023-06-26T13:07:02;18.10;;;14.63;;
52186;SDS011;38161;53.020;6.598;2023-06-26T13:09:31;15.82;;;14.57;;
52186;SDS011;38161;53.020;6.598;2023-06-26T13:12:01;17.20;;;16.02;;
52186;SDS011;38161;53.020;6.598;2023-06-26T13:14:29;14.00;;;12.90;;
52186;SDS011;38161;53.020;6.598;2023-06-26T13:16:57;18.02;;;16.02;;
52186;SDS011;38161;53.020;6.598;2023-06-26T13:19:27;19.08;;;17.10;;
52186;SDS011;38161;53.020;6.598;2023-06-26T13:24:41;13.45;;;12.25;;
52186;SDS011;38161;53.020;6.598;2023-06-26T13:27:09;13.43;;;12.43;;
52186;SDS011;38161;53.020;6.598;2023-06-26T13:32:01;11.57;;;10.57;;
52186;SDS011;38161;53.020;6.598;2023-06-26T13:34:43;13.20;;;11.65;;
52186;SDS011;38161;53.020;6.598;2023-06-26T13:37:11;16.73;;;15.63;;
52186;SDS011;38161;53.020;6.598;2023-06-26T13:39:37;15.23;;;14.02;;
52186;SDS011;38161;53.020;6.598;2023-06-26T13:42:03;14.13;;;13.13;;
52186;SDS011;38161;53.020;6.598;2023-06-26T13:44:30;17.00;;;15.68;;
52186;SDS011;38161;53.020;6.598;2023-06-26T13:46:58;14.13;;;12.75;;
52186;SDS011;38161;53.020;6.598;2023-06-26T13:49:29;13.50;;;12.55;;
52186;SDS011;38161;53.020;6.598;2023-06-26T13:51:55;16.25;;;14.70;;
52186;SDS011;38161;53.020;6.598;2023-06-26T13:54:23;16.08;;;14.85;;
52186;SDS011;38161;53.020;6.598;2023-06-26T13:56:52;16.13;;;14.93;;
52186;SDS011;38161;53.020;6.598;2023-06-26T13:59:23;17.63;;;16.38;;
52186;SDS011;38161;53.020;6.598;2023-06-26T14:01:53;15.93;;;14.52;;
52186;SDS011;38161;53.020;6.598;2023-06-26T14:04:21;13.95;;;12.88;;
52186;SDS011;38161;53.020;6.598;2023-06-26T14:06:51;16.77;;;15.70;;
52186;SDS011;38161;53.020;6.598;2023-06-26T14:09:18;15.82;;;14.52;;
52186;SDS011;38161;53.020;6.598;2023-06-26T14:12:04;15.70;;;14.65;;
52186;SDS011;38161;53.020;6.598;2023-06-26T14:14:31;14.80;;;13.57;;
52186;SDS011;38161;53.020;6.598;2023-06-26T14:16:59;13.40;;;12.32;;
52186;SDS011;38161;53.020;6.598;2023-06-26T14:19:26;14.35;;;13.15;;
52186;SDS011;38161;53.020;6.598;2023-06-26T14:21:53;15.32;;;14.32;;
52186;SDS011;38161;53.020;6.598;2023-06-26T14:26:45;12.80;;;12.00;;
52186;SDS011;38161;53.020;6.598;2023-06-26T14:29:13;12.90;;;11.88;;
52186;SDS011;38161;53.020;6.598;2023-06-26T14:31:44;14.00;;;12.90;;
52186;SDS011;38161;53.020;6.598;2023-06-26T14:34:14;13.60;;;12.68;;
52186;SDS011;38161;53.020;6.598;2023-06-26T14:36:40;17.45;;;16.02;;
52186;SDS011;38161;53.020;6.598;2023-06-26T14:39:06;14.00;;;12.90;;
52186;SDS011;38161;53.020;6.598;2023-06-26T14:44:01;10.45;;;9.55;;
52186;SDS011;38161;53.020;6.598;2023-06-26T14:46:28;13.27;;;12.13;;
52186;SDS011;38161;53.020;6.598;2023-06-26T14:48:56;13.13;;;11.63;;
52186;SDS011;38161;53.020;6.598;2023-06-26T14:51:21;13.88;;;12.77;;
52186;SDS011;38161;53.020;6.598;2023-06-26T14:53:47;13.18;;;12.18;;
52186;SDS011;38161;53.020;6.598;2023-06-26T14:58:42;12.35;;;11.35;;
52186;SDS011;38161;53.020;6.598;2023-06-26T15:01:09;12.88;;;11.63;;
52186;SDS011;38161;53.020;6.598;2023-06-26T15:06:01;13.65;;;12.43;;
52186;SDS011;38161;53.020;6.598;2023-06-26T15:08:26;12.00;;;11.10;;
52186;SDS011;38161;53.020;6.598;2023-06-26T15:10:52;12.85;;;11.93;;
52186;SDS011;38161;53.020;6.598;2023-06-26T15:13:18;14.10;;;12.90;;
52186;SDS011;38161;53.020;6.598;2023-06-26T15:15:47;15.10;;;13.23;;
52186;SDS011;38161;53.020;6.598;2023-06-26T15:18:13;12.55;;;11.68;;
52186;SDS011;38161;53.020;6.598;2023-06-26T15:20:44;12.30;;;11.25;;
52186;SDS011;38161;53.020;6.598;2023-06-26T15:23:20;13.43;;;12.35;;
52186;SDS011;38161;53.020;6.598;2023-06-26T15:25:46;14.35;;;13.35;;
52186;SDS011;38161;53.020;6.598;2023-06-26T15:28:12;15.27;;;14.23;;
52186;SDS011;38161;53.020;6.598;2023-06-26T15:33:04;12.02;;;10.73;;
52186;SDS011;38161;53.020;6.598;2023-06-26T15:35:31;13.00;;;11.82;;
52186;SDS011;38161;53.020;6.598;2023-06-26T15:37:57;13.43;;;12.15;;
52186;SDS011;38161;53.020;6.598;2023-06-26T15:40:23;13.43;;;12.35;;
52186;SDS011;38161;53.020;6.598;2023-06-26T15:42:49;12.10;;;11.18;;
52186;SDS011;38161;53.020;6.598;2023-06-26T15:45:16;12.80;;;11.80;;
52186;SDS011;38161;53.020;6.598;2023-06-26T15:47:44;11.82;;;10.77;;
52186;SDS011;38161;53.020;6.598;2023-06-26T15:50:12;11.20;;;10.23;;